Time;durP1;ratioP1;P1;durP2;ratioP2;P2;SDS_P1;SDS_P2;PMS_P1;PMS_P2;Temp;Humidity;BMP_temperature;BMP_pressure;BME280_temperature;BME280_humidity;BME280_pressure;Samples;Min_cycle;Max_cycle;Signal;HPM_P1;HPM_P2
2022/03/26 00:02:15;;;;;;;77.27;33.83;;;4.00;78.80;;;;;;10411314;28;20108;-83
2022/03/26 00:07:16;;;;;;;75.97;32.83;;;4.00;79.00;;;;;;10404159;28;20029;-82
2022/03/26 00:12:16;;;;;;;68.53;30.50;;;3.90;79.30;;;;;;10400139;28;20026;-80
2022/03/26 00:17:17;;;;;;;68.17;29.97;;;3.90;79.30;;;;;;10405825;28;20492;-82
2022/03/26 00:22:18;;;;;;;69.50;31.03;;;3.90;79.60;;;;;;10413611;28;20076;-83
2022/03/26 00:27:18;;;;;;;71.97;30.50;;;3.80;79.90;;;;;;10412270;28;20044;-80
2022/03/26 00:32:19;;;;;;;64.00;29.77;;;3.80;79.80;;;;;;10412329;28;20029;-80
2022/03/26 00:37:19;;;;;;;77.30;32.07;;;3.80;80.20;;;;;;10402371;28;20477;-80
2022/03/26 00:42:20;;;;;;;67.20;29.67;;;3.80;80.50;;;;;;10412250;28;20049;-80
2022/03/26 00:47:21;;;;;;;68.77;31.30;;;3.80;81.00;;;;;;10411830;28;20063;-80
2022/03/26 00:52:22;;;;;;;77.13;34.93;;;3.90;80.60;;;;;;10373397;28;20052;-80
2022/03/26 00:57:22;;;;;;;82.00;35.83;;;3.90;80.90;;;;;;10411912;28;20033;-84
2022/03/26 01:02:24;;;;;;;84.37;36.00;;;3.90;81.40;;;;;;10411593;28;20026;-80
2022/03/26 01:07:26;;;;;;;88.13;37.73;;;4.00;81.60;;;;;;10410895;28;20380;-80
2022/03/26 01:12:27;;;;;;;79.13;35.53;;;4.00;81.10;;;;;;10458221;22;20060;-82
2022/03/26 01:17:27;;;;;;;86.60;38.17;;;4.10;81.10;;;;;;10449416;28;20029;-80
2022/03/26 01:22:28;;;;;;;93.47;41.53;;;4.20;80.90;;;;;;10450901;28;20396;-80
2022/03/26 01:27:29;;;;;;;91.43;42.23;;;4.20;80.90;;;;;;10435844;28;20743;-84
2022/03/26 01:32:29;;;;;;;96.33;44.23;;;4.10;81.00;;;;;;10442909;28;20108;-83
2022/03/26 01:37:30;;;;;;;102.20;46.17;;;4.00;81.10;;;;;;10452045;28;20505;-80
2022/03/26 01:42:30;;;;;;;111.27;51.50;;;3.90;81.30;;;;;;10450950;28;20118;-80
2022/03/26 01:47:31;;;;;;;123.47;57.90;;;3.80;81.60;;;;;;10449515;28;20037;-83
2022/03/26 01:52:32;;;;;;;135.43;66.37;;;3.80;81.90;;;;;;10451905;28;20432;-81
2022/03/26 01:57:33;;;;;;;124.07;59.47;;;3.90;82.00;;;;;;10450752;28;20025;-81
2022/03/26 02:02:35;;;;;;;128.03;60.60;;;4.00;81.60;;;;;;10450035;28;20028;-85
2022/03/26 02:07:38;;;;;;;124.77;60.00;;;4.10;81.40;;;;;;10446131;28;20039;-81
2022/03/26 02:12:39;;;;;;;131.17;65.53;;;4.20;81.20;;;;;;10432024;28;20057;-85
2022/03/26 02:17:40;;;;;;;131.10;62.67;;;4.30;81.80;;;;;;10444204;28;20108;-85
2022/03/26 02:22:41;;;;;;;123.47;61.13;;;4.30;80.90;;;;;;10428467;28;20476;-80
2022/03/26 02:27:41;;;;;;;129.07;62.23;;;4.40;80.90;;;;;;10450620;28;20029;-80
2022/03/26 02:32:42;;;;;;;127.97;61.47;;;4.40;81.20;;;;;;10444311;28;20028;-80
2022/03/26 02:37:42;;;;;;;126.97;60.67;;;4.40;80.80;;;;;;10421049;28;20469;-80
2022/03/26 02:42:43;;;;;;;123.40;56.00;;;4.40;80.90;;;;;;10443295;28;20475;-86
2022/03/26 02:47:44;;;;;;;120.67;59.80;;;4.40;80.50;;;;;;10440599;28;20134;-81
2022/03/26 02:52:48;;;;;;;112.97;54.53;;;4.40;80.30;;;;;;10433007;28;20086;-80
2022/03/26 02:57:48;;;;;;;122.07;57.87;;;4.40;80.30;;;;;;10448355;28;20366;-84
2022/03/26 03:02:49;;;;;;;118.47;56.87;;;4.40;80.40;;;;;;10445610;28;20116;-80
2022/03/26 03:07:50;;;;;;;128.33;60.00;;;4.30;80.40;;;;;;10409054;28;20067;-82
2022/03/26 03:12:51;;;;;;;123.60;59.60;;;4.20;80.80;;;;;;10435837;28;20056;-80
2022/03/26 03:17:52;;;;;;;122.87;57.80;;;4.20;80.90;;;;;;10452332;28;20540;-83
2022/03/26 03:22:52;;;;;;;132.80;61.07;;;4.10;81.20;;;;;;10453902;28;20029;-86
2022/03/26 03:27:53;;;;;;;124.50;59.63;;;4.10;81.20;;;;;;10414377;28;20033;-80
2022/03/26 03:32:54;;;;;;;116.43;53.87;;;4.10;81.40;;;;;;10439054;28;20524;-87
2022/03/26 03:37:54;;;;;;;123.93;61.33;;;4.00;81.40;;;;;;10451522;28;20030;-84
2022/03/26 03:42:55;;;;;;;127.17;62.43;;;4.00;82.00;;;;;;10437761;28;20411;-81
2022/03/26 03:47:56;;;;;;;137.07;65.80;;;4.00;82.60;;;;;;10455666;28;20048;-80
2022/03/26 03:52:56;;;;;;;137.00;63.67;;;3.90;82.70;;;;;;10456372;28;20084;-85
2022/03/26 03:57:57;;;;;;;129.60;61.37;;;3.80;83.00;;;;;;10455752;28;20021;-80
2022/03/26 04:03:00;;;;;;;124.27;60.37;;;3.90;83.40;;;;;;10449980;28;20108;-82
2022/03/26 04:08:00;;;;;;;116.27;56.87;;;3.90;83.80;;;;;;10436922;28;20044;-81
2022/03/26 04:13:01;;;;;;;129.03;62.97;;;3.80;84.00;;;;;;10455700;28;20052;-80
2022/03/26 04:18:02;;;;;;;127.37;60.07;;;3.80;84.80;;;;;;10453310;28;20037;-81
2022/03/26 04:23:02;;;;;;;154.87;64.97;;;3.80;85.20;;;;;;10428082;28;20163;-82
2022/03/26 04:28:03;;;;;;;144.83;64.87;;;3.80;85.80;;;;;;10440923;28;20099;-80
2022/03/26 04:33:04;;;;;;;125.63;60.57;;;3.70;86.00;;;;;;10453531;28;20389;-81
2022/03/26 04:38:05;;;;;;;134.50;63.17;;;3.70;86.20;;;;;;10452801;28;20033;-81
2022/03/26 04:43:06;;;;;;;130.87;63.97;;;3.70;86.60;;;;;;10452893;28;20063;-80
2022/03/26 04:48:06;;;;;;;128.43;64.10;;;3.70;87.40;;;;;;10453345;28;20396;-81
2022/03/26 04:53:07;;;;;;;135.87;64.60;;;3.70;88.40;;;;;;10452544;28;20029;-81
2022/03/26 04:58:08;;;;;;;131.67;64.93;;;3.70;88.90;;;;;;10435497;22;20126;-82
2022/03/26 05:03:09;;;;;;;112.23;53.77;;;3.80;88.80;;;;;;10405015;28;20033;-86
2022/03/26 05:08:10;;;;;;;116.27;54.03;;;3.80;90.10;;;;;;10393988;28;20041;-84
2022/03/26 05:13:10;;;;;;;118.03;55.43;;;3.90;90.30;;;;;;10411714;28;20040;-83
2022/03/26 05:18:13;;;;;;;109.13;55.60;;;4.00;89.70;;;;;;10410980;28;20035;-80
2022/03/26 05:23:13;;;;;;;142.30;66.00;;;4.10;89.30;;;;;;10375227;28;20119;-78
2022/03/26 05:28:14;;;;;;;127.63;62.53;;;4.20;90.20;;;;;;10410594;28;20179;-83
2022/03/26 05:33:15;;;;;;;122.33;58.53;;;4.30;90.00;;;;;;10394919;28;20042;-88
2022/03/26 05:38:15;;;;;;;111.53;52.30;;;4.40;90.00;;;;;;10368361;28;20034;-85
2022/03/26 05:43:16;;;;;;;108.30;51.43;;;4.50;89.80;;;;;;10369299;28;20109;-85
2022/03/26 05:48:18;;;;;;;119.90;55.67;;;4.60;89.30;;;;;;10369272;28;20045;-80
2022/03/26 05:53:18;;;;;;;107.67;53.00;;;4.80;88.90;;;;;;10362815;28;20026;-81
2022/03/26 05:58:19;;;;;;;100.37;50.63;;;4.90;89.00;;;;;;10361004;28;20067;-88
2022/03/26 06:03:19;;;;;;;106.13;49.63;;;5.10;89.00;;;;;;10366216;28;20034;-89
2022/03/26 06:08:20;;;;;;;111.73;53.80;;;5.20;88.30;;;;;;10365802;28;20030;-84
2022/03/26 06:13:21;;;;;;;107.97;51.43;;;5.40;87.80;;;;;;10362384;28;20084;-86
2022/03/26 06:18:21;;;;;;;98.43;49.87;;;5.50;87.30;;;;;;10367629;28;20057;-80
2022/03/26 06:23:22;;;;;;;91.93;46.80;;;5.60;88.20;;;;;;10367170;28;20421;-81
2022/03/26 06:28:23;;;;;;;95.47;45.57;;;5.80;88.20;;;;;;10367141;28;20685;-79
2022/03/26 06:33:23;;;;;;;83.00;41.10;;;6.00;88.10;;;;;;10368141;28;20500;-80
2022/03/26 06:38:28;;;;;;;84.03;39.33;;;6.20;87.90;;;;;;10367855;28;20044;-83
2022/03/26 06:43:29;;;;;;;82.33;37.97;;;6.50;87.60;;;;;;10367904;28;20030;-83
2022/03/26 06:48:31;;;;;;;81.57;39.27;;;6.80;87.50;;;;;;10367361;28;20138;-80
2022/03/26 06:53:33;;;;;;;75.33;37.03;;;7.00;87.40;;;;;;10367551;28;20022;-80
2022/03/26 06:58:35;;;;;;;76.73;38.93;;;7.30;87.10;;;;;;10367855;28;20576;-80
2022/03/26 07:03:36;;;;;;;75.33;40.37;;;7.60;87.00;;;;;;10365843;28;20103;-80
2022/03/26 07:08:36;;;;;;;73.77;36.87;;;7.80;86.20;;;;;;10367061;28;20133;-83
2022/03/26 07:13:37;;;;;;;67.57;33.63;;;8.10;86.10;;;;;;10366252;28;20044;-80
2022/03/26 07:18:37;;;;;;;64.70;34.43;;;8.40;85.50;;;;;;10380689;28;20034;-80
2022/03/26 07:23:38;;;;;;;69.87;34.07;;;8.70;83.80;;;;;;10366886;28;20028;-82
2022/03/26 07:28:39;;;;;;;63.60;31.60;;;8.90;83.70;;;;;;10353218;28;20050;-84
2022/03/26 07:33:39;;;;;;;67.83;33.10;;;9.20;83.40;;;;;;10361619;28;20105;-80
2022/03/26 07:38:40;;;;;;;64.50;31.60;;;9.60;82.60;;;;;;10348299;28;20034;-80
2022/03/26 07:43:41;;;;;;;61.37;30.43;;;10.00;81.60;;;;;;10341321;28;20448;-80
2022/03/26 07:48:42;;;;;;;60.20;30.63;;;10.30;80.90;;;;;;10382463;28;20141;-81
2022/03/26 07:53:42;;;;;;;54.20;27.83;;;10.70;80.10;;;;;;10370268;28;20401;-81
2022/03/26 07:58:43;;;;;;;49.45;25.52;;;11.00;79.70;;;;;;10346309;28;20050;-81
2022/03/26 08:03:44;;;;;;;53.67;26.55;;;11.30;78.50;;;;;;10368939;28;20033;-81
2022/03/26 08:08:44;;;;;;;48.58;25.25;;;11.60;77.80;;;;;;10387465;28;20696;-81
2022/03/26 08:13:45;;;;;;;52.08;28.67;;;11.90;76.90;;;;;;10389757;28;20041;-82
2022/03/26 08:18:46;;;;;;;50.58;24.95;;;12.10;74.80;;;;;;10404856;28;20033;-83
2022/03/26 08:23:47;;;;;;;51.53;25.85;;;12.30;74.60;;;;;;10427025;23;20160;-81
2022/03/26 08:28:49;;;;;;;53.30;27.45;;;12.60;74.20;;;;;;10438486;28;20496;-81
2022/03/26 08:33:50;;;;;;;50.50;25.17;;;12.80;73.30;;;;;;10446535;28;20091;-84
2022/03/26 08:38:51;;;;;;;52.85;25.88;;;13.10;72.10;;;;;;10444943;28;20121;-80
2022/03/26 08:43:52;;;;;;;46.17;24.77;;;13.30;71.80;;;;;;10428400;28;20072;-88
2022/03/26 08:48:53;;;;;;;51.05;23.48;;;13.60;70.40;;;;;;10412786;28;20136;-82
2022/03/26 08:53:53;;;;;;;53.63;26.77;;;13.60;69.90;;;;;;10426308;28;20033;-81
2022/03/26 08:58:55;;;;;;;45.70;22.58;;;13.90;68.80;;;;;;10452402;28;20039;-81
2022/03/26 09:03:55;;;;;;;41.38;21.75;;;14.00;68.90;;;;;;10438351;28;20033;-81
2022/03/26 09:08:56;;;;;;;46.10;21.75;;;14.30;68.50;;;;;;10432919;28;20029;-79
2022/03/26 09:13:59;;;;;;;51.10;24.15;;;14.50;66.90;;;;;;10416467;28;20025;-83
2022/03/26 09:18:59;;;;;;;40.13;19.50;;;14.60;68.40;;;;;;10442453;28;20082;-82
2022/03/26 09:24:00;;;;;;;38.85;18.63;;;14.90;65.70;;;;;;10449252;28;20512;-83
2022/03/26 09:29:01;;;;;;;42.17;20.95;;;14.80;65.70;;;;;;10450651;28;20123;-81
2022/03/26 09:34:01;;;;;;;43.95;20.77;;;14.80;66.50;;;;;;10437241;28;20489;-80
2022/03/26 09:39:03;;;;;;;38.72;20.52;;;15.10;65.70;;;;;;10412762;28;20034;-84
2022/03/26 09:44:03;;;;;;;37.10;18.60;;;15.20;65.40;;;;;;10450005;28;20155;-80
2022/03/26 09:49:04;;;;;;;32.78;18.23;;;15.20;64.10;;;;;;10449947;28;20037;-82
2022/03/26 09:54:05;;;;;;;38.13;17.65;;;15.10;63.70;;;;;;10449545;28;20599;-82
2022/03/26 09:59:05;;;;;;;37.30;19.40;;;15.10;65.00;;;;;;10435346;28;20030;-82
2022/03/26 10:04:11;;;;;;;36.05;18.33;;;15.60;65.20;;;;;;10428232;28;20039;-79
2022/03/26 10:09:11;;;;;;;35.88;18.77;;;15.80;63.10;;;;;;10451433;28;20044;-81
2022/03/26 10:14:13;;;;;;;33.08;19.60;;;15.90;64.20;;;;;;10447370;28;20028;-80
2022/03/26 10:19:21;;;;;;;33.38;18.45;;;16.30;64.10;;;;;;10416641;28;20428;-83
2022/03/26 10:24:25;;;;;;;32.65;18.35;;;16.50;61.80;;;;;;10442970;28;20056;-83
2022/03/26 10:29:26;;;;;;;30.85;17.65;;;16.50;62.90;;;;;;10430796;28;20083;-82
2022/03/26 10:34:26;;;;;;;34.67;17.05;;;16.70;61.00;;;;;;10425652;28;20041;-80
2022/03/26 10:39:28;;;;;;;37.28;18.42;;;16.70;60.50;;;;;;10410106;28;20041;-79
2022/03/26 10:44:30;;;;;;;28.67;15.88;;;16.70;59.70;;;;;;10416575;28;20030;-79
2022/03/26 10:49:36;;;;;;;26.80;14.23;;;16.50;60.00;;;;;;10428670;28;20043;-79
2022/03/26 10:54:37;;;;;;;30.60;13.88;;;16.30;59.90;;;;;;10435454;28;20107;-81
2022/03/26 10:59:37;;;;;;;28.50;17.40;;;16.40;59.10;;;;;;10424879;28;20109;-83
2022/03/26 11:04:38;;;;;;;26.17;11.88;;;16.90;59.50;;;;;;10409278;28;20029;-82
2022/03/26 11:09:40;;;;;;;21.50;9.23;;;17.10;56.90;;;;;;10448309;28;20033;-85
2022/03/26 11:14:42;;;;;;;24.75;12.75;;;16.90;57.20;;;;;;10447690;28;20033;-81
2022/03/26 11:19:54;;;;;;;20.73;10.02;;;16.80;57.90;;;;;;10444828;28;20044;-80
2022/03/26 11:25:26;;;;;;;24.70;12.02;;;17.10;57.50;;;;;;10422880;28;20504;-80
2022/03/26 11:30:37;;;;;;;25.55;13.50;;;17.20;56.70;;;;;;10440395;28;20396;-83
2022/03/26 11:35:57;;;;;;;25.95;14.20;;;17.30;57.20;;;;;;10427770;28;20116;-81
2022/03/26 11:41:05;;;;;;;29.73;13.57;;;17.40;56.40;;;;;;10452076;28;20029;-84
2022/03/26 11:51:27;;;;;;;19.42;11.23;;;17.30;57.30;;;;;;10415049;28;20038;-83
2022/03/26 11:56:31;;;;;;;48.80;29.42;;;17.50;56.90;;;;;;10430330;28;20487;-84
2022/03/26 12:01:43;;;;;;;29.70;14.57;;;17.70;57.50;;;;;;10437226;28;20037;-82
2022/03/26 12:06:46;;;;;;;29.98;11.70;;;18.20;56.00;;;;;;10444022;28;20029;-82
2022/03/26 12:12:10;;;;;;;25.55;11.57;;;18.10;55.50;;;;;;10452908;28;20029;-81
2022/03/26 12:17:10;;;;;;;28.15;12.63;;;17.70;55.60;;;;;;10414296;28;20518;-86
2022/03/26 12:22:20;;;;;;;23.60;11.80;;;17.50;56.50;;;;;;10429887;28;20099;-81
2022/03/26 12:27:22;;;;;;;21.70;11.30;;;17.90;56.90;;;;;;10426458;28;20029;-83
2022/03/26 12:32:33;;;;;;;16.35;9.38;;;17.90;55.20;;;;;;10436013;28;20025;-84
2022/03/26 12:37:35;;;;;;;22.70;10.77;;;17.50;55.40;;;;;;10423447;28;20501;-84
2022/03/26 12:42:35;;;;;;;18.20;8.60;;;17.50;57.30;;;;;;10412558;28;20041;-81
2022/03/26 12:47:44;;;;;;;16.25;8.30;;;18.00;55.40;;;;;;10441116;28;20048;-83
2022/03/26 12:52:45;;;;;;;13.35;7.90;;;18.10;54.10;;;;;;10423084;28;20040;-83
2022/03/26 13:03:08;;;;;;;16.13;9.20;;;18.50;53.70;;;;;;10438363;28;20493;-81
2022/03/26 13:08:13;;;;;;;18.08;9.48;;;18.50;53.00;;;;;;10439520;28;20040;-84
2022/03/26 13:13:13;;;;;;;16.63;9.35;;;18.50;53.00;;;;;;10426622;28;20025;-85
2022/03/26 13:18:20;;;;;;;20.20;9.35;;;18.30;53.90;;;;;;10419123;28;20409;-83
2022/03/26 13:23:28;;;;;;;15.98;8.77;;;18.50;52.80;;;;;;10435588;28;20080;-83
2022/03/26 13:28:35;;;;;;;21.52;9.75;;;18.40;52.90;;;;;;10419301;28;20145;-85
2022/03/26 13:33:36;;;;;;;14.65;8.18;;;17.70;53.60;;;;;;10422852;28;20389;-81
2022/03/26 13:38:39;;;;;;;14.50;7.15;;;17.30;54.10;;;;;;10444576;28;20033;-79
2022/03/26 13:43:41;;;;;;;21.70;9.00;;;17.10;53.90;;;;;;10450620;28;20116;-85
2022/03/26 13:48:54;;;;;;;21.23;9.20;;;17.20;54.70;;;;;;10432164;28;20033;-84
2022/03/26 13:53:55;;;;;;;13.68;6.35;;;17.60;54.80;;;;;;10409420;28;20104;-79
2022/03/26 13:59:01;;;;;;;16.85;8.40;;;17.90;53.00;;;;;;10438992;28;20017;-84
2022/03/26 14:04:01;;;;;;;13.23;7.55;;;17.80;53.20;;;;;;10418275;28;20032;-82
2022/03/26 14:09:06;;;;;;;18.50;7.38;;;17.30;53.60;;;;;;10444767;28;20059;-81
2022/03/26 14:14:07;;;;;;;17.67;7.90;;;17.40;54.70;;;;;;10446001;28;20021;-84
2022/03/26 14:19:07;;;;;;;20.75;7.80;;;17.40;54.70;;;;;;10415607;28;20037;-83
2022/03/26 14:24:08;;;;;;;16.00;8.13;;;17.20;54.80;;;;;;10446637;28;20068;-82
2022/03/26 14:29:09;;;;;;;17.48;8.95;;;16.90;55.10;;;;;;10428739;28;20046;-83
2022/03/26 14:34:09;;;;;;;37.83;16.30;;;16.60;55.20;;;;;;10429663;28;20036;-87
2022/03/26 14:39:10;;;;;;;29.08;16.75;;;16.40;56.40;;;;;;10436887;28;20067;-82
2022/03/26 14:44:10;;;;;;;17.83;7.75;;;16.30;56.80;;;;;;10446649;28;20040;-82
2022/03/26 14:49:12;;;;;;;30.27;13.60;;;16.10;57.30;;;;;;10415398;28;20048;-82
2022/03/26 14:54:13;;;;;;;20.40;11.55;;;16.00;58.40;;;;;;10426689;28;20029;-83
2022/03/26 14:59:14;;;;;;;14.20;8.18;;;16.00;59.00;;;;;;10409431;28;20048;-81
2022/03/26 15:04:14;;;;;;;18.65;10.00;;;15.80;60.10;;;;;;10410391;28;20063;-83
2022/03/26 15:09:15;;;;;;;17.13;10.20;;;15.80;60.60;;;;;;10408691;28;20050;-80
2022/03/26 15:14:16;;;;;;;29.85;15.25;;;15.70;61.00;;;;;;10413518;28;20025;-81
2022/03/26 15:19:16;;;;;;;17.67;8.32;;;15.70;62.00;;;;;;10412591;28;20744;-81
2022/03/26 15:24:17;;;;;;;20.42;9.52;;;15.70;62.40;;;;;;10415609;28;20103;-83
2022/03/26 15:29:18;;;;;;;15.88;8.98;;;15.60;62.70;;;;;;10419203;28;20055;-79
2022/03/26 15:34:20;;;;;;;16.92;8.32;;;15.50;63.30;;;;;;10423067;28;20493;-79
2022/03/26 15:39:21;;;;;;;28.52;14.07;;;15.40;63.90;;;;;;10416767;28;20030;-82
2022/03/26 15:44:21;;;;;;;19.65;9.93;;;15.30;64.30;;;;;;10418854;28;20166;-82
2022/03/26 15:49:22;;;;;;;30.17;13.82;;;15.20;64.50;;;;;;10454706;28;20041;-80
2022/03/26 15:54:22;;;;;;;16.88;7.72;;;15.10;65.10;;;;;;10431408;28;20021;-80
2022/03/26 15:59:24;;;;;;;13.57;6.72;;;15.10;65.30;;;;;;10433101;28;20148;-79
2022/03/26 16:04:25;;;;;;;11.80;6.70;;;15.00;65.70;;;;;;10414525;28;20050;-81
2022/03/26 16:09:26;;;;;;;14.93;7.72;;;15.00;66.00;;;;;;10439897;28;20044;-83
2022/03/26 16:14:26;;;;;;;13.52;6.97;;;14.90;66.40;;;;;;10432830;28;20030;-79
2022/03/26 16:19:27;;;;;;;15.45;7.65;;;14.80;66.80;;;;;;10413323;28;20115;-79
2022/03/26 16:24:28;;;;;;;11.50;5.80;;;14.70;66.90;;;;;;10413603;28;20104;-80
2022/03/26 16:29:28;;;;;;;11.82;6.10;;;14.60;67.30;;;;;;10418569;28;20033;-80
2022/03/26 16:34:29;;;;;;;14.52;7.50;;;14.60;67.60;;;;;;10450549;28;20029;-80
2022/03/26 16:39:29;;;;;;;14.00;6.97;;;14.50;67.70;;;;;;10454649;28;20021;-81
2022/03/26 16:44:30;;;;;;;11.90;6.63;;;14.40;68.30;;;;;;10428714;28;20065;-79
2022/03/26 16:49:31;;;;;;;15.48;7.32;;;14.20;69.30;;;;;;10413136;28;20119;-80
2022/03/26 16:54:31;;;;;;;14.65;7.03;;;14.10;69.80;;;;;;10413224;28;20033;-78
2022/03/26 16:59:32;;;;;;;15.20;7.93;;;14.00;70.80;;;;;;10440882;28;20041;-80
2022/03/26 17:04:34;;;;;;;15.32;7.82;;;13.90;71.50;;;;;;10423996;28;20048;-80
2022/03/26 17:09:34;;;;;;;14.77;8.20;;;13.80;74.00;;;;;;10433505;28;20060;-82
2022/03/26 17:14:35;;;;;;;15.93;8.77;;;13.60;74.40;;;;;;10418978;28;20091;-81
2022/03/26 17:19:35;;;;;;;19.67;9.55;;;13.60;74.50;;;;;;10423394;28;20029;-83
2022/03/26 17:24:36;;;;;;;17.42;9.55;;;13.50;74.70;;;;;;10410837;28;20057;-83
2022/03/26 17:29:37;;;;;;;22.60;11.35;;;13.50;76.40;;;;;;10427970;28;20507;-81
2022/03/26 17:34:37;;;;;;;21.58;11.20;;;13.20;80.40;;;;;;10446956;28;20029;-82
2022/03/26 17:39:38;;;;;;;22.60;12.55;;;12.80;83.80;;;;;;10438794;28;20040;-83
2022/03/26 17:44:39;;;;;;;20.33;10.90;;;12.60;86.60;;;;;;10413082;28;20484;-82
2022/03/26 17:49:40;;;;;;;22.88;12.10;;;12.20;94.00;;;;;;10411999;28;20102;-80
2022/03/26 17:54:41;;;;;;;21.27;12.73;;;12.00;99.90;;;;;;10436127;28;20117;-79
2022/03/26 17:59:42;;;;;;;26.07;14.70;;;11.60;99.90;;;;;;10448531;28;20555;-80
2022/03/26 18:04:42;;;;;;;35.83;19.00;;;11.10;99.90;;;;;;10412423;28;20498;-85
2022/03/26 18:09:43;;;;;;;45.30;24.67;;;10.70;99.90;;;;;;10423774;28;20073;-81
2022/03/26 18:14:44;;;;;;;59.60;27.97;;;10.10;99.90;;;;;;10410607;28;20106;-80
2022/03/26 18:19:45;;;;;;;69.23;29.97;;;9.80;99.90;;;;;;10420186;28;20037;-85
2022/03/26 18:24:47;;;;;;;64.33;29.77;;;9.50;99.90;;;;;;10431338;28;20045;-82
2022/03/26 18:29:49;;;;;;;61.93;26.87;;;9.30;99.90;;;;;;10419273;28;20033;-79
2022/03/26 18:34:49;;;;;;;70.73;30.37;;;9.00;99.90;;;;;;10443770;28;20029;-82
2022/03/26 18:39:50;;;;;;;67.63;30.73;;;8.90;99.90;;;;;;10450557;28;20408;-82
2022/03/26 18:44:51;;;;;;;84.33;33.80;;;8.80;99.90;;;;;;10443284;28;20351;-80
2022/03/26 18:49:52;;;;;;;81.53;34.33;;;8.80;99.90;;;;;;10446965;28;20459;-80
2022/03/26 18:54:53;;;;;;;94.03;37.07;;;8.80;99.90;;;;;;10410944;28;20108;-82
2022/03/26 18:59:54;;;;;;;93.07;36.97;;;8.80;99.90;;;;;;10429742;28;20431;-81
2022/03/26 19:04:55;;;;;;;91.73;36.60;;;8.80;99.90;;;;;;10429583;28;20060;-81
2022/03/26 19:09:55;;;;;;;90.03;38.67;;;8.90;99.90;;;;;;10408148;28;20129;-81
2022/03/26 19:14:56;;;;;;;85.03;35.83;;;8.90;99.90;;;;;;10429543;28;20464;-81
2022/03/26 19:19:57;;;;;;;80.73;36.77;;;8.90;99.90;;;;;;10434980;28;20493;-82
2022/03/26 19:24:58;;;;;;;92.03;38.30;;;8.90;99.90;;;;;;10407871;28;20061;-81
2022/03/26 19:30:00;;;;;;;69.63;31.10;;;8.90;99.90;;;;;;10414129;28;20040;-85
2022/03/26 19:35:01;;;;;;;64.67;29.37;;;8.80;99.90;;;;;;10431410;28;20641;-83
2022/03/26 19:40:03;;;;;;;53.03;25.10;;;8.70;99.90;;;;;;10447845;28;20037;-83
2022/03/26 19:45:05;;;;;;;60.67;26.70;;;8.60;99.90;;;;;;10423607;28;20103;-82
2022/03/26 19:50:06;;;;;;;56.47;25.67;;;8.50;99.90;;;;;;10414302;28;20033;-81
2022/03/26 19:55:08;;;;;;;59.90;26.67;;;8.40;99.90;;;;;;10435304;28;20033;-82
2022/03/26 20:00:10;;;;;;;61.00;28.70;;;8.40;99.90;;;;;;10434388;28;20385;-80
2022/03/26 20:05:10;;;;;;;62.90;28.53;;;8.30;99.90;;;;;;10451935;28;20086;-81
2022/03/26 20:10:12;;;;;;;64.93;30.73;;;8.30;99.90;;;;;;10424434;28;20098;-86
2022/03/26 20:15:12;;;;;;;54.50;23.93;;;8.20;99.90;;;;;;10432176;28;20056;-82
2022/03/26 20:20:13;;;;;;;48.60;22.67;;;8.10;99.90;;;;;;10442187;28;20492;-81
2022/03/26 20:25:13;;;;;;;49.80;22.07;;;8.00;99.90;;;;;;10440029;28;20029;-85
2022/03/26 20:30:14;;;;;;;44.87;20.77;;;7.80;99.90;;;;;;10427994;28;20041;-84
2022/03/26 20:35:15;;;;;;;40.07;19.63;;;7.70;99.90;;;;;;10452005;28;20037;-86
2022/03/26 20:40:15;;;;;;;43.27;18.97;;;7.60;99.90;;;;;;10455307;28;20031;-84
2022/03/26 20:45:16;;;;;;;39.13;18.47;;;7.50;99.90;;;;;;10437631;28;20124;-81
2022/03/26 20:50:17;;;;;;;41.37;17.50;;;7.40;99.90;;;;;;10451672;28;20070;-82
2022/03/26 20:55:17;;;;;;;39.07;16.87;;;7.30;99.90;;;;;;10435686;28;20444;-82
2022/03/26 21:00:18;;;;;;;42.70;17.50;;;7.20;99.90;;;;;;10419672;28;20075;-81
2022/03/26 21:05:19;;;;;;;36.63;18.40;;;7.10;99.90;;;;;;10414118;28;20067;-82
2022/03/26 21:10:20;;;;;;;38.53;17.27;;;7.00;99.90;;;;;;10413125;28;20071;-82
2022/03/26 21:15:21;;;;;;;36.30;15.67;;;7.00;99.90;;;;;;10412443;28;20405;-81
2022/03/26 21:20:22;;;;;;;32.57;15.67;;;7.00;99.90;;;;;;10446461;28;20987;-80
2022/03/26 21:30:43;;;;;;;36.63;16.37;;;6.80;99.90;;;;;;10446766;28;20060;-81
2022/03/26 21:35:44;;;;;;;34.87;16.10;;;6.80;99.90;;;;;;10438777;28;20037;-81
2022/03/26 21:40:49;;;;;;;38.37;17.23;;;6.70;99.90;;;;;;10442960;28;20440;-85
2022/03/26 21:45:50;;;;;;;38.10;16.47;;;6.70;99.90;;;;;;10442483;28;20035;-82
2022/03/26 21:50:51;;;;;;;43.03;18.73;;;6.70;99.90;;;;;;10438551;28;20047;-81
2022/03/26 21:55:53;;;;;;;38.30;17.77;;;6.60;99.90;;;;;;10437809;28;20029;-81
2022/03/26 22:00:53;;;;;;;40.33;18.20;;;6.60;99.90;;;;;;10431330;28;20039;-82
2022/03/26 22:05:54;;;;;;;39.27;16.80;;;6.50;99.90;;;;;;10437165;28;20039;-82
2022/03/26 22:10:55;;;;;;;38.80;17.47;;;6.30;99.90;;;;;;10443680;28;20044;-81
2022/03/26 22:15:55;;;;;;;40.37;18.20;;;6.30;99.90;;;;;;10436386;28;20056;-84
2022/03/26 22:20:57;;;;;;;40.37;18.50;;;6.20;99.90;;;;;;10429989;28;20063;-81
2022/03/26 22:25:57;;;;;;;46.37;18.70;;;6.20;99.90;;;;;;10436775;28;20044;-81
2022/03/26 22:30:58;;;;;;;43.20;20.30;;;6.20;99.90;;;;;;10431159;28;20033;-81
2022/03/26 22:35:59;;;;;;;42.30;18.47;;;6.20;99.90;;;;;;10437120;28;20385;-84
2022/03/26 22:41:00;;;;;;;50.10;19.00;;;6.10;99.90;;;;;;10432635;28;20090;-81
2022/03/26 22:46:00;;;;;;;43.80;20.47;;;6.10;99.90;;;;;;10438749;28;20031;-84
2022/03/26 22:51:01;;;;;;;41.30;18.30;;;6.00;99.90;;;;;;10433344;28;20544;-83
2022/03/26 22:56:02;;;;;;;44.77;20.70;;;6.00;99.90;;;;;;10444179;28;20029;-81
2022/03/26 23:01:05;;;;;;;48.07;20.90;;;5.90;99.90;;;;;;10439957;28;20034;-85
2022/03/26 23:06:06;;;;;;;47.70;21.30;;;5.90;99.90;;;;;;10437929;28;20558;-81
2022/03/26 23:11:07;;;;;;;47.37;19.70;;;5.80;99.90;;;;;;10443665;28;20037;-81
2022/03/26 23:16:09;;;;;;;48.97;21.50;;;5.70;99.90;;;;;;10421223;28;20057;-85
2022/03/26 23:21:11;;;;;;;48.10;21.40;;;5.70;99.90;;;;;;10422632;28;20484;-81
2022/03/26 23:26:11;;;;;;;52.77;22.70;;;5.60;99.90;;;;;;10426062;28;20034;-82
2022/03/26 23:31:12;;;;;;;51.03;20.60;;;5.60;99.90;;;;;;10407891;28;20054;-81
2022/03/26 23:36:13;;;;;;;47.73;20.63;;;5.70;99.90;;;;;;10422707;28;20040;-83
2022/03/26 23:41:14;;;;;;;49.90;20.97;;;5.80;99.90;;;;;;10429680;28;20116;-81
2022/03/26 23:46:17;;;;;;;45.03;19.50;;;5.80;99.90;;;;;;10454300;28;20477;-81
2022/03/26 23:51:18;;;;;;;44.57;18.60;;;5.70;99.90;;;;;;10454722;28;20041;-81
2022/03/26 23:56:19;;;;;;;32.37;15.40;;;5.60;99.90;;;;;;10449861;28;20112;-86
